Time;durP1;ratioP1;P1;durP2;ratioP2;P2;SDS_P1;SDS_P2;PMS_P1;PMS_P2;Temp;Humidity;BMP_temperature;BMP_pressure;BME280_temperature;BME280_humidity;BME280_pressure;Samples;Min_cycle;Max_cycle;Signal;HPM_P1;HPM_P2
2022/03/28 00:00:25;;;;;;;15.68;7.93;;;;;;;8.22;64.52;102548.91;5093735;28;20142;-84
2022/03/28 00:02:53;;;;;;;11.68;7.18;;;;;;;8.15;64.55;102551.41;5092546;28;20028;-85
2022/03/28 00:05:19;;;;;;;12.05;6.85;;;;;;;8.11;65.41;102551.91;5092618;28;20448;-84
2022/03/28 00:07:44;;;;;;;14.40;6.70;;;;;;;8.06;65.43;102547.81;5093261;28;20051;-84
2022/03/28 00:10:12;;;;;;;13.10;6.82;;;;;;;8.01;65.81;102547.41;5107555;28;20165;-84
2022/03/28 00:12:40;;;;;;;11.60;6.55;;;;;;;8.00;64.54;102536.75;5109693;28;20032;-84
2022/03/28 00:15:08;;;;;;;11.10;6.90;;;;;;;7.98;65.17;102530.66;5092778;28;20533;-84
2022/03/28 00:17:37;;;;;;;12.68;6.85;;;;;;;7.96;65.08;102535.38;5093298;28;20103;-84
2022/03/28 00:20:09;;;;;;;10.55;6.13;;;;;;;7.90;63.92;102528.75;5092266;28;20024;-84
2022/03/28 00:22:40;;;;;;;10.27;6.40;;;;;;;7.89;64.39;102521.66;5093051;28;20047;-84
2022/03/28 00:25:10;;;;;;;12.98;6.47;;;;;;;7.85;65.42;102529.22;5093528;28;20024;-84
2022/03/28 00:27:36;;;;;;;9.77;6.60;;;;;;;7.81;64.92;102530.53;5109234;28;20058;-84
2022/03/28 00:30:02;;;;;;;10.20;6.28;;;;;;;7.71;66.47;102521.69;5075622;28;20032;-84
2022/03/28 00:32:28;;;;;;;9.82;6.20;;;;;;;7.65;67.36;102519.59;5092367;28;20020;-84
2022/03/28 00:34:55;;;;;;;10.55;6.32;;;;;;;7.60;67.20;102517.34;5092182;28;20464;-84
2022/03/28 00:37:23;;;;;;;12.52;6.43;;;;;;;7.52;67.20;102510.00;5075481;28;20123;-84
2022/03/28 00:39:48;;;;;;;12.32;7.22;;;;;;;7.50;66.75;102503.06;5091878;28;20032;-84
2022/03/28 00:42:14;;;;;;;10.77;6.82;;;;;;;7.45;67.07;102502.69;5093325;28;20042;-83
2022/03/28 00:44:39;;;;;;;14.23;7.70;;;;;;;7.42;67.07;102497.59;5108668;28;20438;-84
2022/03/28 00:47:05;;;;;;;10.82;6.82;;;;;;;7.38;67.81;102497.91;5111421;28;20055;-84
2022/03/28 00:49:30;;;;;;;12.75;6.75;;;;;;;7.33;67.54;102499.38;5096567;28;20024;-84
2022/03/28 00:51:56;;;;;;;12.63;7.43;;;;;;;7.31;67.79;102496.81;5096288;28;20024;-84
2022/03/28 00:54:22;;;;;;;12.90;6.82;;;;;;;7.28;67.32;102489.03;5095362;28;20047;-84
2022/03/28 00:56:48;;;;;;;15.00;7.63;;;;;;;7.30;67.61;102494.28;5097370;28;20016;-84
2022/03/28 00:59:14;;;;;;;13.10;6.88;;;;;;;7.26;68.00;102495.56;5096418;28;20028;-84
2022/03/28 01:01:39;;;;;;;13.57;7.38;;;;;;;7.22;68.01;102488.78;5096389;28;20063;-84
2022/03/28 01:04:08;;;;;;;11.98;6.57;;;;;;;7.24;67.77;102489.50;5096688;28;20020;-84
2022/03/28 01:06:36;;;;;;;13.85;6.88;;;;;;;7.18;67.66;102481.00;5095583;28;20531;-84
2022/03/28 01:09:03;;;;;;;15.75;7.50;;;;;;;7.20;67.93;102481.69;5097054;28;20020;-84
2022/03/28 01:11:31;;;;;;;14.20;7.00;;;;;;;7.17;67.82;102470.34;5078763;28;20397;-84
2022/03/28 01:13:58;;;;;;;10.63;6.45;;;;;;;7.15;68.30;102473.19;5096476;28;20065;-84
2022/03/28 01:16:23;;;;;;;14.82;6.32;;;;;;;7.12;68.07;102478.06;5113232;28;20027;-84
2022/03/28 01:18:48;;;;;;;11.13;6.50;;;;;;;7.05;68.57;102467.00;5095464;28;20467;-83
2022/03/28 01:21:14;;;;;;;10.68;6.28;;;;;;;7.00;69.17;102469.34;5095692;28;20036;-84
2022/03/28 01:23:43;;;;;;;11.95;6.25;;;;;;;6.95;68.54;102467.09;5096278;28;20024;-84
2022/03/28 01:26:09;;;;;;;10.38;6.60;;;;;;;6.94;69.50;102461.81;5112726;28;20028;-85
2022/03/28 01:28:35;;;;;;;13.45;7.45;;;;;;;6.93;69.12;102460.16;5095477;28;20478;-84
2022/03/28 01:31:00;;;;;;;10.00;6.13;;;;;;;6.91;69.49;102462.13;5095212;28;20117;-84
2022/03/28 01:33:26;;;;;;;8.93;5.65;;;;;;;6.87;68.95;102461.59;5111379;28;20468;-84
2022/03/28 01:35:52;;;;;;;13.77;6.72;;;;;;;6.83;69.26;102460.19;5111785;28;20039;-84
2022/03/28 01:38:19;;;;;;;13.23;7.30;;;;;;;6.79;69.79;102448.88;5111732;28;20074;-84
2022/03/28 01:40:54;;;;;;;10.63;6.65;;;;;;;6.80;67.98;102452.41;5112450;28;20020;-85
2022/03/28 01:43:21;;;;;;;11.23;6.68;;;;;;;6.77;70.06;102441.91;5096234;28;20110;-84
2022/03/28 01:45:46;;;;;;;11.25;6.78;;;;;;;6.77;69.40;102447.31;5096093;28;20050;-84
2022/03/28 01:48:12;;;;;;;13.73;7.28;;;;;;;6.72;69.55;102450.47;5095799;28;20024;-84
2022/03/28 01:50:39;;;;;;;11.90;7.18;;;;;;;6.66;70.03;102451.91;5111700;28;20028;-84
2022/03/28 01:53:07;;;;;;;9.10;5.97;;;;;;;6.62;69.98;102447.81;5095692;28;20027;-84
2022/03/28 01:55:32;;;;;;;10.18;6.18;;;;;;;6.58;70.56;102449.09;5094385;28;20032;-84
2022/03/28 01:57:58;;;;;;;10.10;6.57;;;;;;;6.55;70.23;102452.09;5092952;28;20030;-84
2022/03/28 02:00:25;;;;;;;12.32;6.40;;;;;;;6.53;70.34;102451.41;5094253;28;20024;-85
2022/03/28 02:02:52;;;;;;;12.13;6.53;;;;;;;6.48;70.94;102448.31;5095555;28;20024;-84
2022/03/28 02:05:18;;;;;;;13.25;6.65;;;;;;;6.45;70.85;102433.28;5094482;28;20024;-84
2022/03/28 02:07:50;;;;;;;11.82;6.72;;;;;;;6.45;69.65;102446.78;5110992;28;20131;-84
2022/03/28 02:10:20;;;;;;;9.98;6.38;;;;;;;6.43;71.04;102437.13;5111279;28;20055;-84
2022/03/28 02:12:48;;;;;;;10.23;6.35;;;;;;;6.40;70.67;102443.66;5095410;28;20028;-84
2022/03/28 02:15:14;;;;;;;10.25;6.57;;;;;;;6.34;71.08;102436.16;5111619;28;20459;-84
2022/03/28 02:17:40;;;;;;;12.02;6.53;;;;;;;6.29;71.49;102439.31;5095533;28;20024;-84
2022/03/28 02:20:08;;;;;;;11.85;6.72;;;;;;;6.28;71.18;102437.59;5093564;28;20085;-84
2022/03/28 02:22:38;;;;;;;13.23;6.70;;;;;;;6.23;71.12;102429.13;5095431;28;20107;-84
2022/03/28 02:25:05;;;;;;;11.20;6.30;;;;;;;6.19;71.58;102422.34;5095121;28;20058;-84
2022/03/28 02:27:31;;;;;;;13.55;6.90;;;;;;;6.19;71.76;102414.25;5095316;28;20020;-84
2022/03/28 02:29:57;;;;;;;12.38;6.97;;;;;;;6.20;71.92;102418.66;5111164;28;20407;-85
2022/03/28 02:32:23;;;;;;;11.18;6.70;;;;;;;6.20;71.85;102417.78;5094742;28;20024;-84
2022/03/28 02:34:48;;;;;;;11.20;6.97;;;;;;;6.18;71.41;102420.63;5093445;28;20059;-85
2022/03/28 02:37:14;;;;;;;12.48;6.65;;;;;;;6.16;71.21;102419.94;5076925;28;20031;-85
2022/03/28 02:39:39;;;;;;;12.57;7.40;;;;;;;6.13;71.39;102415.69;5095301;28;20074;-85
2022/03/28 02:42:05;;;;;;;14.57;7.90;;;;;;;6.05;72.08;102402.09;5110253;28;20038;-85
2022/03/28 02:44:31;;;;;;;10.32;6.38;;;;;;;6.01;72.40;102399.84;5094079;28;20031;-84
2022/03/28 02:46:56;;;;;;;13.65;6.85;;;;;;;5.99;72.00;102397.28;5110896;28;20023;-84
2022/03/28 02:49:22;;;;;;;11.93;6.50;;;;;;;5.95;72.07;102395.88;5110664;28;20027;-84
2022/03/28 02:51:48;;;;;;;11.80;6.95;;;;;;;5.94;72.60;102392.31;5094566;28;20019;-84
2022/03/28 02:54:16;;;;;;;10.07;6.22;;;;;;;5.89;72.39;102391.91;5110285;28;20027;-83
2022/03/28 02:56:41;;;;;;;10.30;6.20;;;;;;;5.89;72.24;102396.44;5095139;28;20036;-84
2022/03/28 02:59:07;;;;;;;13.15;6.90;;;;;;;5.85;73.04;102387.81;5110184;28;20129;-84
2022/03/28 03:01:33;;;;;;;11.25;6.53;;;;;;;5.79;73.28;102393.78;5093277;28;20077;-84
2022/03/28 03:03:58;;;;;;;9.07;6.35;;;;;;;5.77;73.88;102387.69;5093904;28;20024;-84
2022/03/28 03:06:24;;;;;;;10.48;6.55;;;;;;;5.77;73.91;102387.69;5094190;28;20514;-84
2022/03/28 03:08:50;;;;;;;12.73;6.68;;;;;;;5.78;73.63;102381.31;5075787;28;20476;-84
2022/03/28 03:11:18;;;;;;;11.68;6.90;;;;;;;5.76;73.03;102378.75;5094312;28;20024;-83
2022/03/28 03:13:44;;;;;;;13.43;6.47;;;;;;;5.75;73.69;102378.91;5109959;28;20435;-83
2022/03/28 03:16:10;;;;;;;10.40;5.82;;;;;;;5.73;73.67;102376.38;5094164;28;20028;-84
2022/03/28 03:18:38;;;;;;;15.15;6.43;;;;;;;5.72;74.53;102368.44;5094233;28;20501;-84
2022/03/28 03:21:03;;;;;;;9.95;5.72;;;;;;;5.70;74.29;102362.31;5109878;28;20475;-84
2022/03/28 03:23:31;;;;;;;11.15;6.22;;;;;;;5.70;74.79;102381.19;5110089;28;20032;-84
2022/03/28 03:25:59;;;;;;;10.43;6.07;;;;;;;5.67;75.05;102368.00;5109482;28;20028;-84
2022/03/28 03:28:25;;;;;;;13.35;6.43;;;;;;;5.63;74.31;102373.69;5092976;28;20436;-83
2022/03/28 03:30:51;;;;;;;11.70;7.32;;;;;;;5.61;74.74;102369.47;5092520;28;20024;-83
2022/03/28 03:33:16;;;;;;;10.68;6.57;;;;;;;5.62;74.46;102365.75;5110559;28;20047;-84
2022/03/28 03:35:42;;;;;;;11.07;6.32;;;;;;;5.60;73.97;102368.59;5094497;28;20024;-84
2022/03/28 03:38:07;;;;;;;10.52;6.28;;;;;;;5.58;74.80;102361.66;5075832;28;20024;-84
2022/03/28 03:40:35;;;;;;;12.45;6.35;;;;;;;5.56;74.98;102360.97;5093564;28;20024;-84
2022/03/28 03:43:01;;;;;;;11.50;6.28;;;;;;;5.53;74.35;102362.09;5110484;28;20051;-84
2022/03/28 03:45:26;;;;;;;8.90;5.53;;;;;;;5.50;74.21;102354.31;5075556;28;20067;-83
2022/03/28 03:47:52;;;;;;;10.55;6.20;;;;;;;5.50;74.43;102357.00;5093810;28;20026;-84
2022/03/28 03:50:17;;;;;;;10.95;6.13;;;;;;;5.48;74.42;102348.22;5075619;28;20118;-84
2022/03/28 03:52:43;;;;;;;10.32;6.38;;;;;;;5.48;74.33;102352.75;5093827;28;20153;-84
2022/03/28 03:55:09;;;;;;;14.32;6.95;;;;;;;5.45;74.15;102343.13;5092418;28;20067;-84
2022/03/28 03:57:34;;;;;;;11.75;6.30;;;;;;;5.42;74.22;102341.56;5092658;28;20401;-84
2022/03/28 03:59:59;;;;;;;11.55;6.20;;;;;;;5.40;74.06;102340.00;5092607;28;20107;-84
2022/03/28 04:02:25;;;;;;;9.85;5.90;;;;;;;5.38;74.09;102336.63;5109948;28;20456;-84
2022/03/28 04:04:50;;;;;;;10.32;6.25;;;;;;;5.36;73.46;102338.59;5092312;28;20032;-84
2022/03/28 04:07:16;;;;;;;12.40;6.65;;;;;;;5.32;74.87;102337.22;5109494;28;20048;-84
2022/03/28 04:09:41;;;;;;;11.00;6.53;;;;;;;5.29;74.93;102345.56;5093728;28;20028;-84
2022/03/28 04:12:08;;;;;;;11.07;6.22;;;;;;;5.25;75.33;102331.53;5110189;28;20035;-84
2022/03/28 04:14:33;;;;;;;11.45;6.10;;;;;;;5.23;75.30;102329.00;5109363;28;20036;-84
2022/03/28 04:17:01;;;;;;;9.93;6.22;;;;;;;5.23;75.62;102331.69;5093207;28;20016;-83
2022/03/28 04:19:26;;;;;;;10.20;6.38;;;;;;;5.23;75.40;102328.16;5093181;28;20056;-84
2022/03/28 04:21:55;;;;;;;12.43;6.22;;;;;;;5.22;74.99;102323.75;5094603;28;20064;-84
2022/03/28 04:24:23;;;;;;;11.85;6.55;;;;;;;5.19;75.26;102321.34;5096381;28;20059;-83
2022/03/28 04:26:49;;;;;;;11.10;6.47;;;;;;;5.18;75.54;102333.97;5096063;28;20020;-83
2022/03/28 04:29:14;;;;;;;10.93;6.95;;;;;;;5.13;75.76;102330.84;5096085;28;20042;-84
2022/03/28 04:31:40;;;;;;;11.07;5.95;;;;;;;5.12;75.96;102331.81;5095893;28;20094;-84
2022/03/28 04:34:09;;;;;;;11.52;6.25;;;;;;;5.11;76.32;102332.84;5096321;28;20024;-84
2022/03/28 04:36:36;;;;;;;8.00;5.53;;;;;;;5.06;76.69;102327.91;5097167;28;20526;-84
2022/03/28 04:39:02;;;;;;;11.90;6.03;;;;;;;5.04;77.04;102339.78;5095801;28;20039;-84
2022/03/28 04:41:27;;;;;;;13.73;6.70;;;;;;;5.02;76.59;102329.16;5113431;28;20024;-84
2022/03/28 04:43:53;;;;;;;10.27;5.40;;;;;;;5.01;76.75;102335.53;5113014;28;20028;-84
2022/03/28 04:46:18;;;;;;;11.70;5.97;;;;;;;5.00;76.22;102331.13;5112368;28;20077;-84
2022/03/28 04:48:47;;;;;;;13.65;6.32;;;;;;;4.99;76.28;102326.75;5112366;28;20036;-84
2022/03/28 04:51:12;;;;;;;9.20;5.90;;;;;;;4.96;76.41;102328.88;5095896;28;20093;-84
2022/03/28 04:53:38;;;;;;;14.25;6.47;;;;;;;4.93;76.64;102327.31;5112552;28;20448;-84
2022/03/28 04:56:04;;;;;;;12.35;6.10;;;;;;;4.90;76.70;102327.59;5095336;28;20132;-84
2022/03/28 04:58:29;;;;;;;12.90;6.68;;;;;;;4.89;76.23;102331.28;5112436;28;20020;-84
2022/03/28 05:00:54;;;;;;;11.60;6.32;;;;;;;4.85;76.80;102325.31;5095910;28;20073;-84
2022/03/28 05:03:20;;;;;;;9.38;5.75;;;;;;;4.81;76.42;102331.97;5095441;28;20115;-84
2022/03/28 05:05:46;;;;;;;12.07;5.95;;;;;;;4.78;76.92;102336.81;5095421;28;20028;-84
2022/03/28 05:08:11;;;;;;;13.50;6.80;;;;;;;4.76;77.14;102336.94;5096965;28;20123;-84
2022/03/28 05:10:37;;;;;;;11.57;6.45;;;;;;;4.72;76.69;102336.38;5079032;28;20031;-84
2022/03/28 05:13:03;;;;;;;13.18;6.47;;;;;;;4.69;76.69;102331.25;5096869;28;20057;-84
2022/03/28 05:15:28;;;;;;;12.23;6.30;;;;;;;4.68;77.14;102332.28;5078503;28;20038;-84
2022/03/28 05:17:53;;;;;;;10.93;5.95;;;;;;;4.67;77.21;102327.88;5094862;28;20108;-84
2022/03/28 05:20:19;;;;;;;11.57;5.95;;;;;;;4.63;76.96;102323.75;5095819;28;20046;-83
2022/03/28 05:22:45;;;;;;;9.75;6.10;;;;;;;4.65;77.56;102332.56;5094796;28;20052;-82
2022/03/28 05:25:10;;;;;;;10.88;6.30;;;;;;;4.62;78.00;102327.47;5095207;28;20077;-82
2022/03/28 05:27:43;;;;;;;13.48;6.50;;;;;;;4.61;76.87;102333.81;5096630;28;20479;-82
2022/03/28 05:30:10;;;;;;;11.80;6.55;;;;;;;4.60;77.92;102329.41;5095257;28;20078;-82
2022/03/28 05:32:36;;;;;;;13.50;6.72;;;;;;;4.60;77.92;102326.72;5095247;28;20032;-82
2022/03/28 05:35:01;;;;;;;11.18;5.97;;;;;;;4.57;77.99;102327.84;5111993;28;20375;-82
2022/03/28 05:37:29;;;;;;;13.32;6.43;;;;;;;4.56;77.79;102318.09;5078164;28;20028;-81
2022/03/28 05:39:54;;;;;;;11.40;6.55;;;;;;;4.55;77.90;102323.63;5095744;28;20110;-82
2022/03/28 05:42:20;;;;;;;12.50;6.40;;;;;;;4.55;77.74;102327.16;5094623;28;20058;-82
2022/03/28 05:44:45;;;;;;;12.50;6.22;;;;;;;4.56;77.92;102323.50;5077688;28;20464;-82
2022/03/28 05:47:11;;;;;;;11.13;6.10;;;;;;;4.57;77.99;102317.09;5094394;28;20440;-81
2022/03/28 05:49:37;;;;;;;12.85;6.20;;;;;;;4.58;77.82;102320.66;5096407;28;20035;-81
2022/03/28 05:52:03;;;;;;;12.07;5.97;;;;;;;4.59;77.97;102318.81;5095633;28;20103;-81
2022/03/28 05:54:28;;;;;;;10.77;6.40;;;;;;;4.59;78.06;102313.44;5095769;28;20051;-81
2022/03/28 05:56:54;;;;;;;12.45;6.30;;;;;;;4.59;78.53;102314.25;5095404;28;20031;-81
2022/03/28 05:59:19;;;;;;;11.63;5.93;;;;;;;4.57;79.17;102309.03;5094214;28;20032;-82
2022/03/28 06:01:45;;;;;;;9.20;5.68;;;;;;;4.60;78.38;102307.91;5095704;28;20039;-82
2022/03/28 06:04:11;;;;;;;11.20;6.00;;;;;;;4.63;78.94;102310.31;5095868;28;20020;-82
2022/03/28 06:06:36;;;;;;;11.13;5.47;;;;;;;4.65;79.42;102305.66;5076831;28;20479;-83
2022/03/28 06:09:02;;;;;;;10.45;5.70;;;;;;;4.67;79.32;102306.38;5094014;28;20028;-80
2022/03/28 06:11:28;;;;;;;11.30;5.60;;;;;;;4.74;78.91;102312.88;5095096;28;20020;-81
2022/03/28 06:13:54;;;;;;;10.23;5.40;;;;;;;4.81;78.53;102310.47;5111189;28;20022;-82
2022/03/28 06:16:20;;;;;;;9.82;5.82;;;;;;;4.87;78.79;102315.31;5110440;28;20043;-82
2022/03/28 06:18:46;;;;;;;10.57;5.88;;;;;;;4.94;78.81;102299.41;5094766;28;20028;-82
2022/03/28 06:21:11;;;;;;;15.05;5.82;;;;;;;5.02;78.68;102306.78;5094398;28;20103;-81
2022/03/28 06:23:37;;;;;;;10.90;5.57;;;;;;;5.09;78.80;102306.09;5094601;28;20031;-81
2022/03/28 06:26:04;;;;;;;12.35;6.18;;;;;;;5.18;78.77;102306.19;5093275;28;20058;-81
2022/03/28 06:28:30;;;;;;;11.40;5.80;;;;;;;5.24;79.00;102301.09;5094504;28;20028;-82
2022/03/28 06:30:57;;;;;;;11.52;5.95;;;;;;;5.35;78.70;102307.31;5094543;28;20122;-82
2022/03/28 06:33:23;;;;;;;11.23;5.78;;;;;;;5.41;78.34;102304.88;5094957;28;20106;-82
2022/03/28 06:35:49;;;;;;;10.55;5.35;;;;;;;5.50;78.55;102302.31;5110124;28;20089;-82
2022/03/28 06:38:15;;;;;;;10.05;5.50;;;;;;;5.58;78.32;102305.97;5093491;28;20408;-82
2022/03/28 06:40:40;;;;;;;12.55;5.47;;;;;;;5.66;78.15;102304.38;5076437;28;20062;-81
2022/03/28 06:43:06;;;;;;;11.82;5.50;;;;;;;5.70;78.74;102313.84;5094268;28;20058;-82
2022/03/28 06:45:37;;;;;;;13.10;5.78;;;;;;;5.76;78.91;102310.59;5094754;28;20030;-82
2022/03/28 06:48:04;;;;;;;11.68;5.20;;;;;;;5.82;78.71;102317.22;5094417;28;20088;-82
2022/03/28 06:50:30;;;;;;;10.68;4.97;;;;;;;5.88;79.01;102316.63;5093983;28;20082;-82
2022/03/28 06:52:55;;;;;;;11.25;4.90;;;;;;;5.96;79.37;102311.34;5093459;28;20023;-82
2022/03/28 06:55:21;;;;;;;10.35;5.13;;;;;;;6.04;78.93;102302.53;5109957;28;20035;-82
2022/03/28 06:57:47;;;;;;;8.95;5.20;;;;;;;6.11;79.08;102300.94;5075673;28;20040;-82
2022/03/28 07:00:13;;;;;;;12.18;5.35;;;;;;;6.18;78.62;102295.81;5093886;28;20069;-82
2022/03/28 07:02:39;;;;;;;10.68;5.00;;;;;;;6.27;78.97;102292.19;5093853;28;20024;-82
2022/03/28 07:05:08;;;;;;;10.85;5.13;;;;;;;6.31;78.28;102289.03;5093102;28;20035;-82
2022/03/28 07:07:44;;;;;;;11.73;5.18;;;;;;;6.40;77.54;102294.53;5094424;28;20040;-82
2022/03/28 07:10:14;;;;;;;13.82;5.80;;;;;;;6.45;77.73;102287.69;5092585;28;20105;-82
2022/03/28 07:12:42;;;;;;;11.07;5.13;;;;;;;6.54;77.97;102291.31;5094181;28;20032;-82
2022/03/28 07:15:10;;;;;;;10.00;5.47;;;;;;;6.63;77.51;102292.25;5092938;28;20051;-82
2022/03/28 07:17:56;;;;;;;12.50;5.85;;;;;;;6.71;75.53;102283.38;5094870;28;20032;-81
2022/03/28 07:20:24;;;;;;;14.10;6.15;;;;;;;6.77;77.30;102282.75;5094462;28;20020;-82
2022/03/28 07:22:50;;;;;;;11.30;6.05;;;;;;;6.84;77.55;102279.28;5109581;28;20064;-82
2022/03/28 07:25:16;;;;;;;10.75;5.00;;;;;;;6.91;77.85;102278.66;5093245;28;20050;-82
2022/03/28 07:27:41;;;;;;;11.02;5.50;;;;;;;6.99;77.65;102276.88;5093958;28;20028;-82
2022/03/28 07:30:12;;;;;;;10.82;5.30;;;;;;;7.07;77.03;102276.09;5109066;28;20529;-82
2022/03/28 07:32:38;;;;;;;14.98;6.90;;;;;;;7.15;77.34;102265.34;5110113;28;20024;-82
2022/03/28 07:35:04;;;;;;;12.57;6.20;;;;;;;7.21;77.15;102269.28;5093488;28;20043;-82
2022/03/28 07:37:30;;;;;;;14.48;6.22;;;;;;;7.30;77.06;102264.78;5093538;28;20035;-82
2022/03/28 07:39:56;;;;;;;12.07;6.07;;;;;;;7.38;77.44;102262.97;5092602;28;20036;-82
2022/03/28 07:42:22;;;;;;;14.45;6.60;;;;;;;7.45;76.75;102255.06;5110262;28;20030;-82
2022/03/28 07:44:48;;;;;;;10.90;5.63;;;;;;;7.52;77.32;102258.81;5093810;28;20103;-82
2022/03/28 07:47:14;;;;;;;11.70;5.55;;;;;;;7.57;77.31;102252.94;5094100;28;20522;-82
2022/03/28 07:49:39;;;;;;;9.57;5.93;;;;;;;7.62;77.28;102239.81;5093660;28;20032;-82
2022/03/28 07:52:07;;;;;;;13.30;6.63;;;;;;;7.69;76.64;102238.16;5092084;28;20517;-82
2022/03/28 07:54:33;;;;;;;11.90;5.97;;;;;;;7.78;76.27;102249.84;5093630;28;20027;-82
2022/03/28 07:56:59;;;;;;;10.95;5.70;;;;;;;7.87;76.47;102256.97;5096213;28;20020;-81
2022/03/28 07:59:24;;;;;;;11.70;5.95;;;;;;;7.95;75.87;102250.72;5098159;28;20036;-82
2022/03/28 08:01:51;;;;;;;12.38;6.60;;;;;;;8.03;75.91;102242.66;5097810;28;20050;-82
2022/03/28 08:04:17;;;;;;;10.95;6.45;;;;;;;8.12;75.71;102250.78;5097229;28;20026;-81
2022/03/28 08:06:43;;;;;;;13.60;7.22;;;;;;;8.18;75.23;102253.69;5097094;28;20047;-82
2022/03/28 08:09:08;;;;;;;15.45;7.90;;;;;;;8.28;75.44;102247.28;5096128;28;20024;-81
2022/03/28 08:11:35;;;;;;;14.27;7.35;;;;;;;8.35;74.94;102248.31;5112877;28;20040;-81
2022/03/28 08:14:01;;;;;;;13.20;6.80;;;;;;;8.43;74.60;102241.06;5096124;28;20055;-81
2022/03/28 08:16:28;;;;;;;12.38;6.65;;;;;;;8.51;74.33;102237.53;5097249;28;20016;-81
2022/03/28 08:18:53;;;;;;;13.10;7.18;;;;;;;8.58;74.36;102232.31;5113124;28;20481;-82
2022/03/28 08:21:19;;;;;;;13.60;6.68;;;;;;;8.66;73.91;102221.47;5097405;28;20158;-81
2022/03/28 08:23:44;;;;;;;12.05;6.40;;;;;;;8.74;73.63;102220.63;5097331;28;20355;-81
2022/03/28 08:26:10;;;;;;;13.65;6.88;;;;;;;8.82;74.01;102228.75;5112944;28;20460;-82
2022/03/28 08:28:35;;;;;;;11.93;6.32;;;;;;;8.90;73.18;102223.34;5095999;28;20077;-82
2022/03/28 08:31:01;;;;;;;11.85;6.55;;;;;;;8.98;73.36;102221.66;5097400;28;20020;-81
2022/03/28 08:33:26;;;;;;;11.23;6.57;;;;;;;9.06;73.08;102217.03;5097643;28;20394;-81
2022/03/28 08:35:52;;;;;;;13.20;6.68;;;;;;;9.16;72.90;102214.16;5095419;28;20031;-81
2022/03/28 08:38:18;;;;;;;10.35;6.45;;;;;;;9.25;72.31;102213.13;5096849;28;20032;-81
2022/03/28 08:40:44;;;;;;;13.77;6.75;;;;;;;9.34;72.46;102213.94;5097282;28;20043;-81
2022/03/28 08:43:09;;;;;;;9.32;5.97;;;;;;;9.42;71.81;102213.06;5097302;28;20024;-81
2022/03/28 08:45:38;;;;;;;13.50;7.57;;;;;;;9.49;71.84;102216.75;5096684;28;20065;-81
2022/03/28 08:48:06;;;;;;;17.50;8.73;;;;;;;9.55;70.99;102213.38;5095644;28;20013;-82
2022/03/28 08:50:39;;;;;;;14.85;7.90;;;;;;;9.62;71.14;102208.94;5112529;28;20020;-83
2022/03/28 08:53:07;;;;;;;13.93;8.57;;;;;;;9.72;70.73;102205.19;5096780;28;20028;-82
2022/03/28 08:55:33;;;;;;;17.42;9.45;;;;;;;9.80;70.89;102203.28;5096398;28;20031;-82
2022/03/28 08:57:58;;;;;;;16.75;8.95;;;;;;;9.87;71.41;102202.56;5078432;28;20024;-82
2022/03/28 09:00:24;;;;;;;16.27;8.30;;;;;;;9.94;70.91;102195.41;5097280;28;20115;-82
2022/03/28 09:02:50;;;;;;;19.42;9.30;;;;;;;10.03;70.79;102191.63;5096578;28;20028;-82
2022/03/28 09:05:28;;;;;;;17.15;9.25;;;;;;;10.10;70.22;102202.59;5112070;28;20078;-82
2022/03/28 09:07:55;;;;;;;15.95;9.40;;;;;;;10.18;69.97;102194.41;5095904;28;20097;-82
2022/03/28 09:10:21;;;;;;;19.98;10.32;;;;;;;10.27;69.22;102198.75;5111800;28;20051;-82
2022/03/28 09:12:56;;;;;;;18.65;10.60;;;;;;;10.37;68.40;102201.25;5078003;28;20032;-82
2022/03/28 09:15:22;;;;;;;14.23;8.73;;;;;;;10.45;68.14;102197.63;5096509;28;20066;-82
2022/03/28 09:17:55;;;;;;;17.27;9.90;;;;;;;10.55;68.15;102192.78;5096156;28;20040;-83
2022/03/28 09:20:22;;;;;;;18.17;9.95;;;;;;;10.64;68.03;102188.97;5096178;28;20420;-83
2022/03/28 09:22:49;;;;;;;18.60;10.90;;;;;;;10.76;67.13;102192.09;5111535;28;20076;-82
2022/03/28 09:25:16;;;;;;;19.67;10.65;;;;;;;10.87;67.38;102188.94;5094919;28;20090;-83
2022/03/28 09:27:44;;;;;;;17.30;10.02;;;;;;;11.00;67.17;102185.59;5096571;28;20020;-82
2022/03/28 09:30:17;;;;;;;21.80;12.00;;;;;;;11.15;66.58;102191.03;5094770;28;20031;-83
2022/03/28 09:32:52;;;;;;;19.15;11.30;;;;;;;11.29;66.57;102193.94;5112268;28;20348;-82
2022/03/28 09:35:21;;;;;;;21.73;12.00;;;;;;;11.41;66.00;102195.16;5096476;28;20024;-82
2022/03/28 09:38:02;;;;;;;22.23;11.85;;;;;;;11.52;66.70;102185.72;5095926;28;20456;-82
2022/03/28 09:40:36;;;;;;;19.27;10.65;;;;;;;11.70;65.50;102183.41;5095680;28;20058;-82
2022/03/28 09:43:05;;;;;;;18.67;10.13;;;;;;;11.87;65.32;102172.31;5095402;28;20058;-82
2022/03/28 09:45:35;;;;;;;17.63;9.63;;;;;;;12.04;64.10;102172.97;5096146;28;20027;-82
2022/03/28 09:48:07;;;;;;;13.30;8.20;;;;;;;12.20;63.59;102171.88;5094752;28;20107;-83
2022/03/28 09:50:38;;;;;;;18.23;9.65;;;;;;;12.38;63.46;102174.97;5094558;28;20020;-82
2022/03/28 09:53:11;;;;;;;18.85;10.60;;;;;;;12.53;61.63;102172.16;5111152;28;20028;-82
2022/03/28 09:55:51;;;;;;;16.20;9.65;;;;;;;12.69;61.97;102157.44;5094987;28;20475;-82
2022/03/28 09:58:56;;;;;;;19.80;11.18;;;;;;;12.90;61.44;102158.44;5094056;28;20058;-83
2022/03/28 10:01:26;;;;;;;19.27;11.25;;;;;;;13.05;60.48;102153.72;5095453;28;20016;-82
2022/03/28 10:03:54;;;;;;;17.20;10.88;;;;;;;13.25;59.66;102153.81;5095353;28;20019;-83
2022/03/28 10:06:20;;;;;;;17.55;10.50;;;;;;;13.44;59.63;102146.81;5093782;28;20028;-83
2022/03/28 10:08:47;;;;;;;16.83;10.13;;;;;;;13.69;58.65;102149.84;5094031;28;20089;-82
2022/03/28 10:11:14;;;;;;;17.38;10.63;;;;;;;13.87;57.02;102145.72;5094834;28;20020;-82
2022/03/28 10:13:40;;;;;;;21.05;11.95;;;;;;;14.00;56.29;102142.19;5076592;28;20020;-82
2022/03/28 10:16:07;;;;;;;20.95;11.88;;;;;;;14.19;56.74;102146.00;5095239;28;20034;-83
2022/03/28 10:18:37;;;;;;;19.83;10.95;;;;;;;14.50;55.96;102142.66;5110077;28;20456;-82
2022/03/28 10:21:25;;;;;;;19.58;12.02;;;;;;;14.72;54.43;102137.00;5111202;28;20032;-83
2022/03/28 10:24:00;;;;;;;18.40;11.00;;;;;;;14.92;53.70;102142.44;5110634;28;20024;-82
2022/03/28 10:26:30;;;;;;;24.17;14.00;;;;;;;15.02;52.99;102133.81;5110809;28;20031;-83
2022/03/28 10:29:00;;;;;;;20.95;13.23;;;;;;;15.19;53.15;102125.97;5094920;28;20020;-83
2022/03/28 10:31:26;;;;;;;18.48;11.32;;;;;;;15.41;51.00;102127.38;5109962;28;20096;-82
2022/03/28 10:33:53;;;;;;;17.63;10.93;;;;;;;15.66;51.69;102117.56;5092960;28;20089;-82
2022/03/28 10:36:32;;;;;;;18.90;12.27;;;;;;;15.85;51.06;102113.09;5110212;28;20020;-83
2022/03/28 10:39:33;;;;;;;23.40;13.65;;;;;;;15.99;51.12;102106.47;5094257;28;20397;-83
2022/03/28 10:42:07;;;;;;;18.33;11.50;;;;;;;16.21;51.39;102104.22;5110419;28;20073;-82
2022/03/28 10:45:03;;;;;;;17.65;10.60;;;;;;;16.52;51.64;102094.25;5094773;28;20032;-82
2022/03/28 10:47:51;;;;;;;16.38;9.50;;;;;;;16.86;50.80;102093.91;5094483;28;20020;-83
2022/03/28 10:50:29;;;;;;;17.15;11.05;;;;;;;17.05;46.53;102081.94;5094526;28;20031;-82
2022/03/28 10:53:13;;;;;;;16.85;11.15;;;;;;;17.21;48.20;102091.41;5094472;28;20032;-82
2022/03/28 10:55:50;;;;;;;19.13;11.77;;;;;;;17.35;47.37;102081.13;5109611;28;20440;-82
2022/03/28 10:58:38;;;;;;;18.30;11.75;;;;;;;17.46;43.94;102085.00;5095028;28;20468;-82
2022/03/28 11:01:26;;;;;;;17.83;11.43;;;;;;;17.77;46.44;102083.91;5094057;28;20390;-82
2022/03/28 11:03:52;;;;;;;19.02;12.45;;;;;;;18.07;43.47;102072.13;5110107;28;20036;-82
2022/03/28 11:06:37;;;;;;;16.52;10.73;;;;;;;18.43;42.73;102089.47;5093866;28;20042;-82
2022/03/28 11:09:02;;;;;;;18.92;12.38;;;;;;;18.73;41.99;102072.00;5111020;28;20085;-83
2022/03/28 11:11:32;;;;;;;17.95;10.85;;;;;;;19.11;42.10;102073.41;5094079;28;20047;-82
2022/03/28 11:14:03;;;;;;;18.13;11.02;;;;;;;19.52;41.23;102076.16;5110539;28;20027;-83
2022/03/28 11:16:53;;;;;;;17.30;10.70;;;;;;;19.97;42.04;102072.59;5094345;28;20020;-83
2022/03/28 11:19:21;;;;;;;15.50;9.40;;;;;;;20.87;39.45;102061.59;5094244;28;20024;-83
2022/03/28 11:22:05;;;;;;;15.05;9.15;;;;;;;23.75;37.30;102058.19;5109946;28;20383;-83
2022/03/28 11:24:47;;;;;;;14.68;9.50;;;;;;;26.60;32.45;102051.06;5093835;28;20020;-83